Time;durP1;ratioP1;P1;durP2;ratioP2;P2;SDS_P1;SDS_P2;PMS_P1;PMS_P2;Temp;Humidity;BMP_temperature;BMP_pressure;BME280_temperature;BME280_humidity;BME280_pressure;Samples;Min_cycle;Max_cycle;Signal;HPM_P1;HPM_P2
2020/12/08 00:01:25;;;;;;;5.17;4.73;;;;;;;9.12;57.63;100426.59;6059454;29;20663;-57
2020/12/08 00:04:45;;;;;;;5.77;5.27;;;;;;;9.15;57.41;100432.63;6059169;29;20237;-56
2020/12/08 00:08:07;;;;;;;6.07;5.57;;;;;;;9.07;57.41;100430.09;6061442;29;20237;-57
2020/12/08 00:11:27;;;;;;;9.90;8.60;;;;;;;9.16;57.29;100433.47;6057854;29;20475;-57
2020/12/08 00:14:48;;;;;;;7.60;6.30;;;;;;;9.20;57.02;100428.22;6060950;29;20221;-56
2020/12/08 00:18:08;;;;;;;5.90;5.33;;;;;;;9.11;57.30;100425.75;6060075;29;20237;-58
2020/12/08 00:21:29;;;;;;;5.83;5.33;;;;;;;9.21;57.09;100424.75;6059976;29;20241;-57
2020/12/08 00:24:49;;;;;;;5.67;5.20;;;;;;;9.06;57.59;100424.91;6059553;29;20229;-56
2020/12/08 00:28:10;;;;;;;6.93;6.20;;;;;;;9.09;56.86;100435.25;6062703;29;20237;-57
2020/12/08 00:31:31;;;;;;;6.07;5.47;;;;;;;8.93;56.81;100423.28;6060007;29;20245;-56
2020/12/08 00:34:51;;;;;;;6.07;5.57;;;;;;;8.87;57.41;100432.84;6059156;29;20268;-58
2020/12/08 00:38:11;;;;;;;6.90;6.30;;;;;;;9.03;57.35;100423.22;6063288;29;20241;-58
2020/12/08 00:41:35;;;;;;;6.50;5.90;;;;;;;9.24;56.72;100422.13;6062183;29;20597;-57
2020/12/08 00:44:55;;;;;;;6.07;5.57;;;;;;;9.29;56.44;100423.84;6051212;29;20226;-56
2020/12/08 00:48:16;;;;;;;6.93;6.33;;;;;;;9.15;56.37;100417.03;6058318;29;20233;-56
2020/12/08 00:51:36;;;;;;;5.60;5.20;;;;;;;9.22;56.78;100417.81;6065823;29;20233;-55
2020/12/08 00:54:56;;;;;;;7.27;6.67;;;;;;;9.35;56.33;100408.19;6057522;29;20332;-58
2020/12/08 00:58:17;;;;;;;6.97;6.37;;;;;;;9.40;55.98;100417.66;6071182;29;20669;-57
2020/12/08 01:01:38;;;;;;;6.60;6.03;;;;;;;9.18;56.15;100422.19;6057278;29;20552;-57
2020/12/08 01:05:00;;;;;;;6.23;5.73;;;;;;;9.17;56.07;100420.47;6058426;29;20229;-56
2020/12/08 01:08:20;;;;;;;6.83;6.20;;;;;;;9.26;56.35;100422.97;6056900;29;22045;-57
2020/12/08 01:11:43;;;;;;;6.10;5.63;;;;;;;9.15;56.33;100423.94;6055958;29;20233;-57
2020/12/08 01:15:06;;;;;;;6.33;5.83;;;;;;;9.22;55.99;100425.63;6059782;29;20245;-51
2020/12/08 01:18:28;;;;;;;6.53;6.03;;;;;;;9.06;55.85;100424.91;6069697;29;20244;-57
2020/12/08 01:21:52;;;;;;;6.77;6.17;;;;;;;9.05;56.76;100433.56;6060018;29;20233;-55
2020/12/08 01:25:14;;;;;;;7.10;6.50;;;;;;;9.14;55.92;100428.28;6072729;29;20237;-58
2020/12/08 01:28:36;;;;;;;6.43;5.93;;;;;;;9.05;56.13;100431.84;6071577;29;20544;-58
2020/12/08 01:31:57;;;;;;;6.27;5.77;;;;;;;8.96;56.15;100428.47;6055360;29;20832;-57
2020/12/08 01:35:18;;;;;;;6.80;6.23;;;;;;;9.16;55.95;100434.31;6060818;29;20237;-57
2020/12/08 01:38:40;;;;;;;6.63;6.13;;;;;;;9.27;55.90;100440.28;6072802;29;20248;-54
2020/12/08 01:42:01;;;;;;;7.23;6.63;;;;;;;9.36;55.29;100425.47;6074126;29;20320;-57
2020/12/08 01:45:25;;;;;;;6.60;6.00;;;;;;;9.34;55.40;100424.63;6071664;29;20226;-58
2020/12/08 01:48:48;;;;;;;8.47;7.80;;;;;;;9.34;55.42;100417.69;6058915;29;20233;-56
2020/12/08 01:52:08;;;;;;;7.77;6.97;;;;;;;9.14;55.41;100420.50;6065419;29;20734;-58
2020/12/08 01:55:30;;;;;;;6.67;6.17;;;;;;;9.09;55.51;100427.47;6056644;29;20233;-57
2020/12/08 01:58:51;;;;;;;7.13;6.63;;;;;;;9.27;56.02;100423.84;6050915;29;20756;-56
2020/12/08 02:02:12;;;;;;;6.97;6.33;;;;;;;9.36;55.58;100420.28;6069368;29;21802;-55
2020/12/08 02:05:32;;;;;;;7.53;6.60;;;;;;;9.35;55.88;100423.78;6072195;29;20229;-56
2020/12/08 02:08:53;;;;;;;7.53;6.93;;;;;;;9.23;55.60;100427.34;6068634;29;20241;-57
2020/12/08 02:12:22;;;;;;;7.83;7.13;;;;;;;9.00;55.98;100436.22;6067565;29;20225;-57
2020/12/08 02:15:43;;;;;;;7.37;6.63;;;;;;;9.10;56.16;100426.59;6057151;29;20308;-55
2020/12/08 02:19:04;;;;;;;7.80;7.13;;;;;;;9.24;55.92;100427.31;6070824;29;20244;-57
2020/12/08 02:22:28;;;;;;;7.30;6.70;;;;;;;9.30;55.99;100421.19;6070326;29;20248;-58
2020/12/08 02:25:58;;;;;;;7.63;6.93;;;;;;;9.38;55.85;100432.41;6075194;29;20240;-57
2020/12/08 02:29:20;;;;;;;7.00;6.50;;;;;;;9.47;55.61;100434.03;6076940;29;20225;-57
2020/12/08 02:32:41;;;;;;;8.33;7.63;;;;;;;9.45;55.16;100438.38;6074144;29;20260;-56
2020/12/08 02:36:03;;;;;;;7.77;7.17;;;;;;;9.39;55.86;100441.06;6062040;29;20237;-56
2020/12/08 02:39:25;;;;;;;7.33;6.70;;;;;;;9.46;55.71;100433.16;6065201;29;20241;-58
2020/12/08 02:42:46;;;;;;;8.63;7.83;;;;;;;9.47;55.74;100434.03;6060115;29;20900;-56
2020/12/08 02:46:10;;;;;;;7.67;7.07;;;;;;;9.52;55.36;100442.66;6074991;29;20228;-57
2020/12/08 02:49:31;;;;;;;8.53;7.83;;;;;;;9.57;55.36;100434.78;6074176;29;20237;-58
2020/12/08 02:52:52;;;;;;;8.03;7.33;;;;;;;9.53;55.33;100439.16;6073536;29;20238;-58
2020/12/08 02:56:13;;;;;;;8.47;7.63;;;;;;;9.56;55.04;100436.53;6061014;29;20245;-54
2020/12/08 02:59:34;;;;;;;8.80;8.10;;;;;;;9.57;54.99;100430.44;6062632;29;20577;-57
2020/12/08 03:02:55;;;;;;;7.77;7.17;;;;;;;9.58;55.47;100429.56;6072528;29;20517;-58
2020/12/08 03:06:16;;;;;;;7.63;7.03;;;;;;;9.59;55.26;100431.28;6073372;29;20233;-56
2020/12/08 03:09:37;;;;;;;7.93;7.33;;;;;;;9.59;55.09;100439.09;6073629;29;20237;-55
2020/12/08 03:12:58;;;;;;;8.73;7.77;;;;;;;9.59;55.23;100439.09;6072382;29;20236;-58
2020/12/08 03:16:19;;;;;;;8.07;7.27;;;;;;;9.59;55.08;100433.88;6072989;29;20241;-58
2020/12/08 03:19:45;;;;;;;7.27;6.67;;;;;;;9.59;54.92;100439.09;6072760;29;20228;-58
2020/12/08 03:23:06;;;;;;;7.30;6.70;;;;;;;9.57;54.99;100445.19;6055044;29;20237;-58
2020/12/08 03:26:29;;;;;;;7.83;7.13;;;;;;;9.51;55.30;100440.91;6072249;29;20237;-56
2020/12/08 03:29:51;;;;;;;7.23;6.63;;;;;;;9.49;55.00;100447.00;6060837;29;20351;-56
2020/12/08 03:33:16;;;;;;;6.77;6.13;;;;;;;9.50;55.17;100453.91;6069009;29;20249;-57
2020/12/08 03:36:37;;;;;;;8.43;7.37;;;;;;;9.57;54.77;100435.63;6072741;29;20820;-56
2020/12/08 03:39:57;;;;;;;7.73;7.07;;;;;;;9.56;54.51;100431.34;6074955;29;20237;-57
2020/12/08 03:43:23;;;;;;;7.60;7.00;;;;;;;9.52;54.81;100437.44;6063638;29;20237;-57
2020/12/08 03:46:44;;;;;;;6.47;5.87;;;;;;;9.52;54.89;100446.97;6076913;29;20336;-57
2020/12/08 03:50:06;;;;;;;13.63;12.43;;;;;;;9.49;55.48;100445.28;6071076;29;20542;-58
2020/12/08 03:53:29;;;;;;;27.13;24.60;;;;;;;9.56;55.20;100444.34;6082230;29;20324;-55
2020/12/08 03:56:54;;;;;;;20.67;18.67;;;;;;;9.60;55.00;100445.16;6071020;29;20252;-57
2020/12/08 04:00:17;;;;;;;9.37;8.50;;;;;;;9.58;54.87;100452.97;6083297;29;20552;-56
2020/12/08 04:03:45;;;;;;;7.37;6.77;;;;;;;9.55;54.87;100458.19;6084663;29;20690;-58
2020/12/08 04:07:05;;;;;;;8.20;7.50;;;;;;;9.52;55.36;100458.25;6085083;29;20253;-57
2020/12/08 04:10:29;;;;;;;6.60;6.10;;;;;;;9.54;54.97;100453.88;6083728;29;21036;-57
2020/12/08 04:13:51;;;;;;;7.03;6.50;;;;;;;9.45;54.94;100461.78;6086089;29;20233;-56
2020/12/08 04:17:17;;;;;;;7.33;6.73;;;;;;;9.49;55.52;100458.25;6083293;29;20261;-56
2020/12/08 04:20:40;;;;;;;8.17;7.47;;;;;;;9.49;55.23;100457.41;6072031;29;20237;-57
2020/12/08 04:24:01;;;;;;;7.50;6.90;;;;;;;9.45;55.34;100461.78;6077939;29;20240;-56
2020/12/08 04:27:23;;;;;;;7.17;6.53;;;;;;;9.44;55.40;100457.44;6071304;29;20271;-56
2020/12/08 04:30:49;;;;;;;7.53;6.93;;;;;;;9.38;55.20;100460.09;6085362;29;20229;-58
2020/12/08 04:34:09;;;;;;;8.73;7.93;;;;;;;9.36;55.47;100461.84;6073559;29;20324;-56
2020/12/08 04:37:31;;;;;;;7.50;6.80;;;;;;;9.36;55.47;100467.06;6070641;29;20328;-58
2020/12/08 04:40:52;;;;;;;7.33;6.73;;;;;;;9.32;55.70;100466.22;6069775;29;20233;-58
2020/12/08 04:44:12;;;;;;;8.73;7.93;;;;;;;9.22;55.70;100470.63;6069403;29;20264;-58
2020/12/08 04:47:37;;;;;;;9.63;8.77;;;;;;;9.18;56.01;100463.75;6066633;29;20233;-58
2020/12/08 04:50:57;;;;;;;9.70;8.87;;;;;;;9.13;55.92;100462.94;6068799;29;20236;-57
2020/12/08 04:54:19;;;;;;;9.90;8.97;;;;;;;9.03;56.22;100469.06;6072366;29;20229;-55
2020/12/08 04:57:40;;;;;;;10.07;9.17;;;;;;;9.03;56.62;100482.06;6072166;29;20328;-58
2020/12/08 05:01:00;;;;;;;9.40;8.57;;;;;;;8.98;56.60;100484.72;6068081;29;20237;-57
2020/12/08 05:04:25;;;;;;;10.67;9.67;;;;;;;8.94;56.42;100483.00;6073331;29;20328;-57
2020/12/08 05:07:45;;;;;;;10.07;9.07;;;;;;;9.06;56.19;100480.31;6070440;29;20245;-56
2020/12/08 05:11:09;;;;;;;9.57;8.77;;;;;;;8.91;56.67;100480.44;6071305;29;20325;-56
2020/12/08 05:14:40;;;;;;;11.20;10.10;;;;;;;8.86;56.76;100485.66;6066860;29;20237;-55
2020/12/08 05:18:05;;;;;;;11.23;10.33;;;;;;;9.04;56.72;100486.41;6072031;29;20229;-57
2020/12/08 05:21:25;;;;;;;11.27;10.27;;;;;;;8.98;56.59;100486.47;6070033;29;20625;-58
2020/12/08 05:24:46;;;;;;;11.20;10.20;;;;;;;9.09;56.32;100484.59;6084313;29;20256;-55
2020/12/08 05:28:17;;;;;;;11.47;10.37;;;;;;;8.91;56.97;100484.78;6072424;29;20236;-58
2020/12/08 05:31:38;;;;;;;11.97;10.83;;;;;;;8.94;56.76;100474.38;6066648;29;20245;-57
2020/12/08 05:35:02;;;;;;;9.63;8.80;;;;;;;9.12;56.40;100475.94;6071525;29;20225;-58
2020/12/08 05:38:28;;;;;;;11.33;10.33;;;;;;;9.18;55.97;100468.94;6046738;29;20553;-58
2020/12/08 05:41:50;;;;;;;11.33;10.23;;;;;;;9.16;56.11;100464.66;6071084;29;20367;-58
2020/12/08 05:45:13;;;;;;;11.67;10.63;;;;;;;9.15;56.43;100458.59;6066327;29;20536;-55
2020/12/08 05:48:35;;;;;;;11.77;10.60;;;;;;;9.22;55.91;100462.84;6069556;29;20627;-58
2020/12/08 05:51:56;;;;;;;11.03;9.80;;;;;;;9.19;55.75;100465.50;6065737;29;20245;-55
2020/12/08 05:55:18;;;;;;;11.00;10.00;;;;;;;9.18;55.95;100479.34;6069350;29;20615;-57
2020/12/08 05:58:38;;;;;;;10.87;9.83;;;;;;;9.10;55.92;100473.34;6056872;29;20245;-55
2020/12/08 06:02:00;;;;;;;12.93;11.80;;;;;;;8.96;56.73;100472.63;6058205;29;20769;-58
2020/12/08 06:05:31;;;;;;;13.07;11.83;;;;;;;8.86;56.05;100479.63;6062927;29;20245;-57
2020/12/08 06:08:51;;;;;;;12.20;11.10;;;;;;;8.98;56.21;100491.66;6058913;29;20236;-51
2020/12/08 06:12:15;;;;;;;11.97;10.43;;;;;;;8.89;56.67;100492.56;6059812;29;20244;-56
2020/12/08 06:15:39;;;;;;;12.53;11.30;;;;;;;8.95;56.22;100502.03;6061397;29;20237;-57
2020/12/08 06:19:00;;;;;;;11.97;10.87;;;;;;;9.07;56.29;100501.94;6061670;29;20233;-56
2020/12/08 06:22:21;;;;;;;12.00;10.83;;;;;;;9.07;56.04;100495.03;6059161;29;20237;-55
2020/12/08 06:25:41;;;;;;;12.00;10.80;;;;;;;9.13;56.01;100499.31;6062388;29;21035;-58
2020/12/08 06:29:07;;;;;;;11.27;10.27;;;;;;;9.26;55.74;100506.13;6062301;29;20237;-56
2020/12/08 06:32:29;;;;;;;11.73;10.73;;;;;;;9.29;55.77;100502.66;6058967;29;20228;-75
2020/12/08 06:35:58;;;;;;;13.70;12.23;;;;;;;9.10;55.78;100504.53;6058573;29;20268;-63
2020/12/08 06:39:21;;;;;;;13.03;11.70;;;;;;;9.07;55.82;100507.13;6056682;29;20233;-62
2020/12/08 06:42:43;;;;;;;11.93;10.83;;;;;;;9.21;55.81;100510.50;6054990;29;20327;-62
2020/12/08 06:46:07;;;;;;;12.83;11.63;;;;;;;9.16;55.59;100517.47;6054232;29;20616;-62
2020/12/08 06:49:35;;;;;;;12.37;10.47;;;;;;;8.96;57.65;100520.22;6055262;29;20237;-62
2020/12/08 06:52:58;;;;;;;13.50;12.20;;;;;;;9.12;55.69;100515.78;6053749;29;20237;-62
2020/12/08 06:56:27;;;;;;;12.67;11.40;;;;;;;9.13;56.00;100522.72;6046514;29;20611;-60
2020/12/08 06:59:48;;;;;;;17.03;13.77;;;;;;;9.22;55.60;100522.59;6067639;29;22184;-58
2020/12/08 07:03:11;;;;;;;13.50;12.40;;;;;;;9.06;56.00;100526.22;6056468;29;21161;-64
2020/12/08 07:06:33;;;;;;;12.73;11.00;;;;;;;9.15;55.59;100525.25;6060189;29;20233;-63
2020/12/08 07:09:54;;;;;;;13.57;12.23;;;;;;;9.24;55.30;100531.25;6055294;29;20237;-58
2020/12/08 07:13:16;;;;;;;11.70;10.57;;;;;;;9.27;55.58;100530.38;6057240;29;20332;-60
2020/12/08 07:16:38;;;;;;;11.37;10.17;;;;;;;9.30;54.97;100529.50;6057046;29;20241;-58
2020/12/08 07:20:04;;;;;;;12.53;11.33;;;;;;;9.27;55.46;100536.44;6057626;29;20650;-61
2020/12/08 07:23:27;;;;;;;12.80;10.93;;;;;;;9.20;55.42;100539.94;6058553;29;20532;-63
2020/12/08 07:26:48;;;;;;;12.03;10.83;;;;;;;9.19;55.40;100546.03;6071520;29;20237;-61
2020/12/08 07:30:08;;;;;;;11.67;10.50;;;;;;;9.22;55.50;100548.59;6066711;29;20245;-64
2020/12/08 07:33:31;;;;;;;10.17;9.37;;;;;;;9.29;55.53;100551.16;6059741;29;20264;-61
2020/12/08 07:36:51;;;;;;;12.13;11.03;;;;;;;9.29;55.40;100548.56;6062587;29;20237;-62
2020/12/08 07:40:12;;;;;;;11.47;10.40;;;;;;;9.27;55.42;100546.81;6066508;29;20245;-62
2020/12/08 07:43:33;;;;;;;12.03;10.87;;;;;;;9.34;54.76;100546.78;6063143;29;20627;-61
2020/12/08 07:46:54;;;;;;;10.80;9.80;;;;;;;9.32;54.96;100548.53;6059831;29;20236;-61
2020/12/08 07:50:26;;;;;;;12.10;10.87;;;;;;;9.33;55.05;100545.06;6062978;29;20237;-61
2020/12/08 07:53:46;;;;;;;11.00;10.00;;;;;;;9.33;55.01;100545.06;6065190;29;20356;-62
2020/12/08 07:57:07;;;;;;;10.17;9.23;;;;;;;9.37;54.69;100546.75;6058798;29;20225;-58
2020/12/08 08:00:28;;;;;;;12.23;9.63;;;;;;;9.35;54.84;100553.72;6063318;29;20286;-59
2020/12/08 08:03:49;;;;;;;10.13;9.23;;;;;;;9.31;54.73;100542.47;6065918;29;20787;-56
2020/12/08 08:07:09;;;;;;;12.20;10.03;;;;;;;9.31;54.77;100544.22;6070932;29;20234;-61
2020/12/08 08:10:30;;;;;;;10.00;9.03;;;;;;;9.30;55.33;100542.47;6071510;29;20237;-61
2020/12/08 08:13:50;;;;;;;11.50;10.30;;;;;;;9.30;54.79;100550.28;6072188;29;20975;-61
2020/12/08 08:17:12;;;;;;;11.77;10.60;;;;;;;9.37;55.01;100541.56;6074649;29;20241;-58
2020/12/08 08:20:32;;;;;;;9.53;8.63;;;;;;;9.41;54.50;100543.25;6075053;29;20320;-55
2020/12/08 08:23:57;;;;;;;11.03;10.03;;;;;;;9.36;54.93;100539.81;6067946;29;20257;-61
2020/12/08 08:27:18;;;;;;;10.70;9.70;;;;;;;9.38;54.60;100532.88;6067303;29;20233;-61
2020/12/08 08:30:38;;;;;;;10.43;9.47;;;;;;;9.31;54.31;100537.28;6071538;29;20249;-56
2020/12/08 08:34:00;;;;;;;10.67;9.63;;;;;;;9.13;54.64;100535.69;6074466;29;20233;-56
2020/12/08 08:37:20;;;;;;;11.40;10.30;;;;;;;9.19;54.93;100537.34;6070555;29;20233;-58
2020/12/08 08:40:41;;;;;;;9.60;8.70;;;;;;;9.15;55.01;100536.53;6070142;29;20237;-56
2020/12/08 08:44:01;;;;;;;12.13;10.90;;;;;;;9.23;54.35;100539.94;6062415;29;20230;-59
2020/12/08 08:47:22;;;;;;;10.83;9.73;;;;;;;9.22;55.03;100543.41;6065253;29;21165;-57
2020/12/08 08:50:43;;;;;;;13.07;11.87;;;;;;;9.17;54.63;100547.78;6072062;29;20234;-55
2020/12/08 08:54:03;;;;;;;12.50;10.50;;;;;;;8.96;55.09;100550.53;6069848;29;20233;-57
2020/12/08 08:57:23;;;;;;;11.17;10.10;;;;;;;9.06;54.99;100552.19;6062702;29;20237;-58
2020/12/08 09:00:44;;;;;;;11.83;10.73;;;;;;;9.05;54.81;100563.44;6072740;29;20237;-58
2020/12/08 09:04:05;;;;;;;12.00;10.80;;;;;;;9.20;54.49;100550.34;6070963;29;20550;-54
2020/12/08 09:07:28;;;;;;;11.20;10.20;;;;;;;9.26;54.44;100552.88;6069890;29;20249;-58
2020/12/08 09:10:49;;;;;;;12.47;11.27;;;;;;;9.19;54.49;100548.63;6069725;29;20233;-61
2020/12/08 09:14:10;;;;;;;10.07;9.20;;;;;;;9.29;54.07;100548.56;6069134;29;20763;-61
2020/12/08 09:17:30;;;;;;;10.77;9.77;;;;;;;9.38;54.19;100545.88;6068803;29;21673;-61
2020/12/08 09:20:51;;;;;;;10.90;9.93;;;;;;;9.35;54.08;100556.31;6069024;29;20232;-56
2020/12/08 09:24:12;;;;;;;12.40;11.17;;;;;;;9.34;54.57;100551.97;6073928;29;20335;-60
2020/12/08 09:27:32;;;;;;;11.43;10.53;;;;;;;9.41;54.21;100553.66;6063628;29;20506;-55
2020/12/08 09:30:53;;;;;;;13.13;12.00;;;;;;;9.45;53.97;100553.59;6063020;29;20616;-58
2020/12/08 09:34:14;;;;;;;11.37;10.27;;;;;;;9.46;54.33;100554.50;6069467;29;20323;-58
2020/12/08 09:37:34;;;;;;;13.63;12.27;;;;;;;9.46;54.25;100565.75;6070601;29;20257;-60
2020/12/08 09:40:56;;;;;;;12.37;11.13;;;;;;;9.43;54.09;100567.50;6065031;29;20565;-61
2020/12/08 09:44:17;;;;;;;12.13;10.93;;;;;;;9.25;54.18;100573.72;6074423;29;20245;-59
2020/12/08 09:47:38;;;;;;;16.57;11.03;;;;;;;9.31;54.62;100573.66;6066369;29;20237;-56
2020/12/08 09:50:58;;;;;;;11.60;10.43;;;;;;;9.31;54.67;100573.66;6066792;29;20226;-61
2020/12/08 09:54:19;;;;;;;12.67;11.37;;;;;;;9.40;54.21;100562.31;6074780;29;20229;-57
2020/12/08 09:57:40;;;;;;;11.13;10.23;;;;;;;9.45;54.47;100563.16;6067321;29;20260;-60
2020/12/08 10:01:00;;;;;;;14.40;12.43;;;;;;;9.49;54.70;100567.44;6072949;29;20233;-59
2020/12/08 10:04:21;;;;;;;12.30;11.23;;;;;;;9.45;54.92;100560.53;6066554;29;20245;-60
2020/12/08 10:07:42;;;;;;;11.87;10.80;;;;;;;9.43;54.51;100557.09;6070744;29;20237;-60
2020/12/08 10:11:03;;;;;;;12.93;11.83;;;;;;;9.44;54.58;100557.09;6068983;29;20233;-60
2020/12/08 10:14:24;;;;;;;11.63;10.53;;;;;;;9.49;54.90;100551.00;6068886;29;20241;-60
2020/12/08 10:17:45;;;;;;;14.97;13.27;;;;;;;9.52;54.81;100550.94;6065026;29;20257;-57
2020/12/08 10:21:05;;;;;;;13.40;12.13;;;;;;;9.54;55.10;100560.47;6068660;29;20702;-61
2020/12/08 10:24:26;;;;;;;13.50;12.30;;;;;;;9.40;55.13;100563.19;6071767;29;20840;-60
2020/12/08 10:27:46;;;;;;;13.53;12.13;;;;;;;9.35;55.24;100564.09;6060681;29;20230;-59
2020/12/08 10:31:08;;;;;;;14.20;12.70;;;;;;;9.32;55.39;100558.91;6060916;29;20246;-59
2020/12/08 10:34:29;;;;;;;13.47;12.17;;;;;;;9.43;55.14;100562.31;6072344;29;20237;-59
2020/12/08 10:37:49;;;;;;;13.43;12.23;;;;;;;9.51;55.26;100560.50;6070982;29;20699;-53
2020/12/08 10:41:10;;;;;;;14.43;13.03;;;;;;;9.47;55.50;100569.19;6066384;29;20241;-57
2020/12/08 10:44:30;;;;;;;14.80;12.63;;;;;;;9.56;55.37;100570.88;6069113;29;20237;-61
2020/12/08 10:47:52;;;;;;;13.77;12.57;;;;;;;9.50;54.99;100573.50;6070861;29;20233;-60
2020/12/08 10:51:12;;;;;;;14.40;13.10;;;;;;;9.49;55.54;100564.00;6075788;29;20820;-57
2020/12/08 10:54:32;;;;;;;12.97;11.87;;;;;;;9.54;55.42;100570.88;6087789;29;20235;-56
2020/12/08 10:57:52;;;;;;;14.53;13.13;;;;;;;9.51;55.39;100565.69;6078674;29;20902;-60
2020/12/08 11:01:17;;;;;;;14.13;12.73;;;;;;;9.52;54.87;100576.94;6068450;29;21015;-56
2020/12/08 11:04:39;;;;;;;14.90;13.53;;;;;;;9.43;55.37;100577.91;6075881;29;20463;-59
2020/12/08 11:08:00;;;;;;;15.80;14.03;;;;;;;9.45;55.39;100565.75;6067847;29;20599;-59
2020/12/08 11:11:22;;;;;;;15.37;13.80;;;;;;;9.56;55.22;100557.88;6071319;29;20248;-54
2020/12/08 11:14:42;;;;;;;14.70;13.17;;;;;;;9.63;55.13;100573.41;6074739;29;20241;-60
2020/12/08 11:18:03;;;;;;;16.07;14.50;;;;;;;9.41;55.01;100567.50;6075299;29;20845;-58
2020/12/08 11:21:25;;;;;;;15.73;14.33;;;;;;;9.57;55.19;100568.22;6071374;29;20244;-61
2020/12/08 11:24:45;;;;;;;13.93;12.67;;;;;;;9.69;55.01;100569.00;6065137;29;20316;-60
2020/12/08 11:28:06;;;;;;;16.00;14.57;;;;;;;9.69;54.82;100564.66;6070057;29;20233;-61
2020/12/08 11:31:27;;;;;;;14.47;13.07;;;;;;;9.77;54.88;100554.19;6070129;29;20240;-61
2020/12/08 11:34:48;;;;;;;15.43;13.93;;;;;;;9.74;55.11;100556.81;6070328;29;20225;-61
2020/12/08 11:38:09;;;;;;;17.33;15.73;;;;;;;9.75;54.70;100542.94;6075437;29;20241;-61
2020/12/08 11:41:30;;;;;;;16.30;14.60;;;;;;;9.76;55.10;100545.53;6081533;29;20233;-60
2020/12/08 11:44:51;;;;;;;15.37;13.50;;;;;;;9.77;54.50;100555.06;6069689;29;20914;-61
2020/12/08 11:48:11;;;;;;;16.33;14.83;;;;;;;9.75;54.89;100564.63;6078160;29;20232;-61
2020/12/08 11:51:32;;;;;;;16.70;14.87;;;;;;;9.76;54.87;100560.28;6078903;29;20229;-61
2020/12/08 11:54:53;;;;;;;17.53;15.83;;;;;;;9.78;54.91;100559.38;6073825;29;20229;-61
2020/12/08 11:58:14;;;;;;;18.03;16.37;;;;;;;9.89;54.28;100559.28;6072802;29;20245;-62
2020/12/08 12:01:34;;;;;;;16.10;14.60;;;;;;;9.98;54.24;100572.19;6071936;29;20233;-61
2020/12/08 12:04:55;;;;;;;16.17;14.67;;;;;;;10.02;54.35;100573.00;6077602;29;20245;-62
2020/12/08 12:08:15;;;;;;;17.27;15.77;;;;;;;10.04;54.42;100579.94;6074232;29;20233;-62
2020/12/08 12:11:36;;;;;;;21.10;19.00;;;;;;;10.09;54.22;100568.59;6069813;29;20245;-61
2020/12/08 12:14:57;;;;;;;17.27;15.73;;;;;;;10.07;54.24;100573.81;6067480;29;20225;-60
2020/12/08 12:18:17;;;;;;;19.93;17.97;;;;;;;10.07;54.08;100575.56;6069169;29;20244;-61
2020/12/08 12:21:37;;;;;;;21.83;19.63;;;;;;;10.11;54.25;100583.31;6064854;29;20574;-63
2020/12/08 12:24:57;;;;;;;18.53;16.83;;;;;;;10.02;54.13;100583.41;6067847;29;20233;-61
2020/12/08 12:28:19;;;;;;;20.97;18.00;;;;;;;9.98;54.46;100582.59;6073943;29;20249;-59
2020/12/08 12:31:43;;;;;;;20.20;18.07;;;;;;;10.02;54.87;100589.50;6067722;29;20387;-55
2020/12/08 12:35:03;;;;;;;22.53;20.33;;;;;;;10.05;54.70;100573.81;6064727;29;20324;-60
2020/12/08 12:38:24;;;;;;;21.43;19.30;;;;;;;10.09;54.67;100579.00;6064616;29;20339;-59
2020/12/08 12:41:45;;;;;;;19.87;17.87;;;;;;;10.03;54.88;100570.38;6067227;29;20240;-60
2020/12/08 12:45:06;;;;;;;19.63;17.13;;;;;;;10.03;54.85;100570.38;6074541;29;20226;-60
2020/12/08 12:48:27;;;;;;;19.73;17.13;;;;;;;10.08;55.17;100569.47;6092705;29;20248;-56
2020/12/08 12:51:47;;;;;;;22.83;19.53;;;;;;;10.18;54.58;100569.38;6068530;29;20307;-58
2020/12/08 12:55:07;;;;;;;20.53;16.60;;;;;;;10.16;54.77;100565.91;6075814;29;20237;-58
2020/12/08 12:58:27;;;;;;;19.43;17.27;;;;;;;10.26;54.73;100566.66;6071523;29;20616;-59
2020/12/08 13:01:49;;;;;;;22.40;20.00;;;;;;;10.15;55.06;100578.94;6070792;29;20252;-60
2020/12/08 13:05:09;;;;;;;27.57;18.87;;;;;;;10.07;55.45;100567.75;6071037;29;20233;-60
2020/12/08 13:08:30;;;;;;;20.57;18.27;;;;;;;10.17;55.07;100561.56;6075361;29;20249;-60
2020/12/08 13:11:50;;;;;;;23.43;20.03;;;;;;;10.14;55.39;100569.41;6073360;29;20248;-61
2020/12/08 13:15:10;;;;;;;22.67;20.27;;;;;;;10.21;55.22;100569.31;6072242;29;20237;-63
2020/12/08 13:18:32;;;;;;;21.97;19.57;;;;;;;10.15;55.74;100558.13;6082339;29;20256;-61
2020/12/08 13:21:53;;;;;;;22.80;20.17;;;;;;;10.22;55.64;100565.00;6081827;29;20226;-59
2020/12/08 13:25:13;;;;;;;21.97;19.67;;;;;;;10.23;55.40;100574.50;6075416;29;20615;-60
2020/12/08 13:28:34;;;;;;;24.13;20.37;;;;;;;10.03;56.01;100561.72;6064199;29;20237;-59
2020/12/08 13:31:54;;;;;;;23.30;20.50;;;;;;;10.09;56.21;100571.22;6074692;29;20244;-59
2020/12/08 13:35:16;;;;;;;25.10;22.03;;;;;;;10.17;56.07;100567.63;6072971;29;20233;-61
2020/12/08 13:38:37;;;;;;;23.20;20.63;;;;;;;10.16;56.21;100576.31;6082219;29;20233;-58
2020/12/08 13:41:57;;;;;;;26.43;23.60;;;;;;;10.09;56.02;100574.66;6071928;29;20241;-61
2020/12/08 13:45:18;;;;;;;25.60;21.10;;;;;;;10.01;56.53;100587.75;6070186;29;20237;-62
2020/12/08 13:48:38;;;;;;;29.57;24.33;;;;;;;9.85;57.01;100575.78;6077991;29;20315;-61
2020/12/08 13:52:00;;;;;;;32.43;26.10;;;;;;;9.93;56.61;100588.72;6072347;29;20260;-61
2020/12/08 13:55:20;;;;;;;34.30;27.43;;;;;;;9.92;56.96;100584.38;6073743;29;20241;-61
2020/12/08 13:58:40;;;;;;;35.63;27.43;;;;;;;9.87;56.88;100584.44;6078494;29;20522;-59
2020/12/08 14:02:01;;;;;;;37.97;29.73;;;;;;;9.94;56.97;100580.88;6059937;29;20236;-59
2020/12/08 14:05:21;;;;;;;47.30;30.70;;;;;;;9.87;57.19;100581.84;6058532;29;22119;-60
2020/12/08 14:08:43;;;;;;;38.80;29.87;;;;;;;9.75;57.35;100589.75;6075859;29;20256;-61
2020/12/08 14:12:04;;;;;;;38.30;27.70;;;;;;;9.82;57.45;100586.22;6069871;29;20265;-60
2020/12/08 14:15:24;;;;;;;36.30;27.20;;;;;;;9.91;57.11;100583.53;6072127;29;20233;-56
2020/12/08 14:18:45;;;;;;;36.53;28.23;;;;;;;9.91;57.45;100580.94;6068792;29;20316;-58
2020/12/08 14:22:06;;;;;;;42.53;27.50;;;;;;;9.93;57.03;100581.78;6075162;29;20233;-56
2020/12/08 14:25:29;;;;;;;40.57;28.70;;;;;;;9.84;57.66;100580.09;6071087;29;20334;-58
2020/12/08 14:28:51;;;;;;;37.63;27.90;;;;;;;9.88;57.12;100580.94;6076505;29;20245;-56
2020/12/08 14:32:12;;;;;;;39.70;28.07;;;;;;;9.97;56.95;100596.47;6072405;29;20592;-58
2020/12/08 14:35:32;;;;;;;45.33;31.03;;;;;;;9.76;58.04;100601.88;6074665;29;20229;-61
2020/12/08 14:38:53;;;;;;;43.07;30.77;;;;;;;9.64;58.09;100598.50;6074794;29;20654;-62
2020/12/08 14:42:15;;;;;;;47.27;31.97;;;;;;;9.75;57.94;100601.03;6075209;29;20650;-58
2020/12/08 14:45:35;;;;;;;47.97;32.57;;;;;;;9.71;57.98;100595.84;6074110;29;20225;-58
2020/12/08 14:48:57;;;;;;;46.00;32.30;;;;;;;9.69;58.28;100589.78;6070260;29;20521;-61
2020/12/08 14:52:18;;;;;;;45.77;30.70;;;;;;;9.45;59.26;100587.41;6069764;29;20727;-60
2020/12/08 14:55:38;;;;;;;46.70;33.47;;;;;;;9.56;59.02;100595.13;6077132;29;20747;-59
2020/12/08 14:58:59;;;;;;;45.00;33.87;;;;;;;9.13;59.97;100603.25;6080559;29;20336;-59
2020/12/08 15:02:21;;;;;;;47.00;39.70;;;;;;;9.10;60.44;100605.00;6065985;29;20767;-58
2020/12/08 15:05:41;;;;;;;40.57;31.00;;;;;;;9.34;59.70;100606.53;6074196;29;20241;-59
2020/12/08 15:09:01;;;;;;;47.10;32.83;;;;;;;9.37;59.52;100611.72;6072313;29;20229;-60
2020/12/08 15:12:22;;;;;;;46.33;34.57;;;;;;;9.34;59.92;100615.19;6073729;29;20241;-59
2020/12/08 15:15:44;;;;;;;45.03;32.43;;;;;;;9.59;58.75;100631.47;6087698;29;20233;-62
2020/12/08 15:19:04;;;;;;;36.63;27.50;;;;;;;9.60;58.69;100621.97;6072632;29;20241;-58
2020/12/08 15:22:25;;;;;;;44.10;34.33;;;;;;;9.43;59.31;100635.06;6063931;29;20230;-62
2020/12/08 15:25:46;;;;;;;39.90;32.50;;;;;;;9.06;59.79;100635.31;6066918;29;20233;-62
2020/12/08 15:29:07;;;;;;;45.13;31.97;;;;;;;8.80;60.37;100638.03;6060813;29;20229;-62
2020/12/08 15:32:29;;;;;;;40.93;31.40;;;;;;;9.11;60.09;100632.69;6057246;29;20242;-62